Time;durP1;ratioP1;P1;durP2;ratioP2;P2;SDS_P1;SDS_P2;PMS_P1;PMS_P2;Temp;Humidity;BMP_temperature;BMP_pressure;BME280_temperature;BME280_humidity;BME280_pressure;Samples;Min_cycle;Max_cycle;Signal;HPM_P1;HPM_P2
2021/07/11 00:00:14;;;;;;;28.43;26.03;;;;;;;;;;2096595;28;20796;-76
2021/07/11 00:01:15;;;;;;;26.30;24.20;;;;;;;;;;2096634;28;20805;-76
2021/07/11 00:02:16;;;;;;;26.83;24.43;;;;;;;22.40;100.00;124524.53;2096599;28;20976;-75
2021/07/11 00:03:18;;;;;;;28.67;26.23;;;;;;;22.40;100.00;124656.63;2088202;28;20896;-76
2021/07/11 00:04:18;;;;;;;27.80;25.37;;;;;;;;;;2088173;28;20219;-76
2021/07/11 00:05:21;;;;;;;27.53;25.20;;;;;;;;;;2096623;28;20483;-76
2021/07/11 00:06:21;;;;;;;27.50;25.10;;;;;;;;;;2080538;28;20227;-78
2021/07/11 00:07:23;;;;;;;27.13;24.93;;;;;;;;;;2096353;28;20494;-75
2021/07/11 00:08:24;;;;;;;26.97;24.47;;;;;;;22.40;100.00;57835.25;2088274;28;20231;-76
2021/07/11 00:09:25;;;;;;;27.13;24.70;;;;;;;;;;2088163;28;21064;-76
2021/07/11 00:10:26;;;;;;;26.53;24.23;;;;;;;22.40;100.00;57713.63;2087273;28;20227;-75
2021/07/11 00:11:28;;;;;;;27.27;24.87;;;;;;;22.40;100.00;57713.63;2088064;28;20551;-76
2021/07/11 00:12:28;;;;;;;28.23;25.73;;;;;;;;;;2096371;28;20221;-75
2021/07/11 00:13:31;;;;;;;26.80;24.70;;;;;;;22.40;100.00;124757.34;2080854;28;20438;-77
2021/07/11 00:14:32;;;;;;;28.77;26.00;;;;;;;;;;2080111;28;20231;-75
2021/07/11 00:15:34;;;;;;;29.10;25.73;;;;;;;22.40;100.00;57722.72;2080213;28;20426;-75
2021/07/11 00:16:34;;;;;;;27.37;25.03;;;;;;;;;;2080211;28;20223;-76
2021/07/11 00:17:36;;;;;;;27.73;25.13;;;;;;;;;;2080110;28;20460;-76
2021/07/11 00:18:36;;;;;;;26.80;24.50;;;;;;;;;;2096296;28;20249;-78
2021/07/11 00:19:38;;;;;;;27.77;25.47;;;;;;;;;;2088215;28;20481;-77
2021/07/11 00:20:38;;;;;;;27.53;25.13;;;;;;;;;;2080026;28;20603;-75
2021/07/11 00:21:40;;;;;;;26.63;24.33;;;;;;;22.40;100.00;57772.41;2079974;28;20470;-76
2021/07/11 00:22:41;;;;;;;26.70;24.53;;;;;;;;;;2096496;28;20233;-76
2021/07/11 00:23:42;;;;;;;29.07;26.30;;;;;;;;;;2088608;28;20464;-76
2021/07/11 00:24:44;;;;;;;26.77;24.47;;;;;;;22.40;100.00;57741.97;2080056;28;20357;-75
2021/07/11 00:25:46;;;;;;;28.90;26.27;;;;;;;22.40;100.00;57713.63;2088044;28;20465;-76
2021/07/11 00:26:46;;;;;;;27.73;25.47;;;;;;;;;;2096106;28;20444;-76
2021/07/11 00:27:48;;;;;;;27.90;25.03;;;;;;;;;;2080750;28;20450;-75
2021/07/11 00:28:51;;;;;;;27.23;24.83;;;;;;;;;;2080831;28;20548;-75
2021/07/11 00:29:53;;;;;;;27.13;24.93;;;;;;;;;;2079602;28;20524;-77
2021/07/11 00:30:53;;;;;;;28.10;25.70;;;;;;;22.40;100.00;57713.63;2080120;28;20501;-76
2021/07/11 00:31:55;;;;;;;28.00;25.47;;;;;;;;;;2080181;28;20493;-75
2021/07/11 00:32:56;;;;;;;28.13;25.53;;;;;;;22.40;100.00;57713.63;2071734;28;20234;-75
2021/07/11 00:33:57;;;;;;;28.13;25.63;;;;;;;22.40;100.00;124757.34;2088142;28;20565;-75
2021/07/11 00:34:58;;;;;;;27.90;25.50;;;;;;;;;;2088310;28;20226;-76
2021/07/11 00:35:59;;;;;;;29.47;26.37;;;;;;;;;;2072026;28;20448;-75
2021/07/11 00:37:00;;;;;;;29.73;25.83;;;;;;;;;;2079990;28;20224;-76
2021/07/11 00:38:02;;;;;;;30.10;27.27;;;;;;;;;;2096328;28;20449;-75
2021/07/11 00:39:02;;;;;;;29.40;26.50;;;;;;;;;;2088372;28;20249;-75
2021/07/11 00:40:04;;;;;;;29.03;26.33;;;;;;;;;;2071548;28;20443;-76
2021/07/11 00:41:05;;;;;;;28.73;26.17;;;;;;;22.40;100.00;57772.41;2079778;28;20697;-76
2021/07/11 00:42:12;;;;;;;30.53;27.53;;;;;;;22.40;100.00;57713.63;2096397;28;20877;-75
2021/07/11 00:43:13;;;;;;;29.23;26.37;;;;;;;;;;2086971;28;20298;-76
2021/07/11 00:44:16;;;;;;;30.83;27.90;;;;;;;;;;2088038;28;20458;-75
2021/07/11 00:45:22;;;;;;;29.90;27.10;;;;;;;;;;2087241;28;20218;-75
2021/07/11 00:46:27;;;;;;;29.00;25.87;;;;;;;;;;2079458;28;20449;-76
2021/07/11 00:47:28;;;;;;;29.10;26.50;;;;;;;;;;2096087;28;20939;-76
2021/07/11 00:48:30;;;;;;;30.17;27.20;;;;;;;22.40;100.00;57713.63;2087869;28;20449;-75
2021/07/11 00:49:36;;;;;;;30.10;27.17;;;;;;;-144.10;100.00;91335.66;2072467;28;21012;-76
2021/07/11 00:50:42;;;;;;;29.40;26.53;;;;;;;22.40;100.00;57713.63;2079401;28;20458;-76
2021/07/11 00:51:48;;;;;;;28.43;25.83;;;;;;;22.40;100.00;57713.63;2079941;28;20449;-76
2021/07/11 00:52:52;;;;;;;29.50;26.40;;;;;;;22.40;100.00;57713.63;2080547;28;20971;-77
2021/07/11 00:53:58;;;;;;;29.67;26.90;;;;;;;22.40;100.00;124757.34;2079408;28;20453;-75
2021/07/11 00:55:00;;;;;;;28.80;26.30;;;;;;;22.40;100.00;57741.97;2079674;28;20442;-75
2021/07/11 00:56:03;;;;;;;29.97;27.17;;;;;;;;;;2096188;28;20489;-76
2021/07/11 00:57:11;;;;;;;30.17;27.27;;;;;;;;;;2086504;28;20507;-75
2021/07/11 00:58:16;;;;;;;29.57;26.90;;;;;;;22.40;100.00;57741.97;2071876;28;20459;-75
2021/07/11 00:59:27;;;;;;;29.60;26.47;;;;;;;22.40;100.00;57714.63;2065679;28;20472;-75
2021/07/11 01:00:27;;;;;;;29.30;26.60;;;;;;;22.40;100.00;164485.69;2071484;28;20466;-76
2021/07/11 01:01:38;;;;;;;30.00;27.20;;;;;;;;;;2071766;28;20471;-76
2021/07/11 01:02:46;;;;;;;29.87;27.10;;;;;;;22.40;100.00;124673.94;2071755;28;20966;-75
2021/07/11 01:03:50;;;;;;;30.93;26.53;;;;;;;;;;2096156;28;20577;-75
2021/07/11 01:04:54;;;;;;;29.97;26.87;;;;;;;22.40;100.00;57741.97;2087022;28;20930;-77
2021/07/11 01:05:59;;;;;;;29.37;26.27;;;;;;;22.40;100.00;57722.72;2071604;28;20550;-75
2021/07/11 01:07:04;;;;;;;30.30;27.50;;;;;;;22.40;100.00;164490.97;2088259;28;20950;-76
2021/07/11 01:08:10;;;;;;;29.80;27.00;;;;;;;22.40;100.00;57741.97;2087509;28;20446;-75
2021/07/11 01:09:11;;;;;;;29.63;26.77;;;;;;;;;;2071553;28;20458;-76
2021/07/11 01:10:16;;;;;;;30.83;27.53;;;;;;;;;;2087753;28;20453;-75
2021/07/11 01:11:18;;;;;;;29.10;26.50;;;;;;;;;;2087225;28;20481;-77
2021/07/11 01:12:21;;;;;;;29.27;26.47;;;;;;;;;;2079651;28;20532;-75
2021/07/11 01:13:23;;;;;;;30.07;26.83;;;;;;;;;;2079389;28;21037;-75
2021/07/11 01:14:32;;;;;;;28.80;26.10;;;;;;;22.40;100.00;57713.63;2096123;28;20455;-75
2021/07/11 01:15:32;;;;;;;30.40;27.30;;;;;;;22.40;100.00;57713.63;2087573;28;20504;-75
2021/07/11 01:16:36;;;;;;;29.67;26.90;;;;;;;22.40;100.00;57741.97;2079501;28;20466;-75
2021/07/11 01:17:42;;;;;;;28.97;26.33;;;;;;;;;;2079362;28;20549;-75
2021/07/11 01:18:45;;;;;;;27.53;25.23;;;;;;;;;;2071398;28;20458;-76
2021/07/11 01:19:53;;;;;;;29.10;26.50;;;;;;;;;;2088147;28;20222;-76
2021/07/11 01:20:57;;;;;;;29.43;26.53;;;;;;;;;;2080488;28;20469;-76
2021/07/11 01:22:03;;;;;;;28.30;25.77;;;;;;;;;;2064249;28;20464;-76
2021/07/11 01:23:12;;;;;;;29.20;26.47;;;;;;;;;;2084041;28;20458;-77
2021/07/11 01:24:16;;;;;;;29.10;26.53;;;;;;;;;;2079205;28;20446;-76
2021/07/11 01:25:29;;;;;;;29.03;26.37;;;;;;;;;;2071540;28;20455;-74
2021/07/11 01:26:31;;;;;;;28.30;25.73;;;;;;;22.40;100.00;124757.34;2088296;28;20889;-75
2021/07/11 01:27:33;;;;;;;28.60;26.00;;;;;;;;;;2087268;28;20481;-75
2021/07/11 01:28:35;;;;;;;29.17;26.67;;;;;;;;;;2071785;28;20463;-75
2021/07/11 01:29:38;;;;;;;28.20;26.00;;;;;;;22.40;100.00;57741.97;2070781;28;20806;-76
2021/07/11 01:30:41;;;;;;;27.43;25.23;;;;;;;;;;2071219;28;20463;-75
2021/07/11 01:31:42;;;;;;;28.63;26.13;;;;;;;;;;2063426;28;20468;-75
2021/07/11 01:32:45;;;;;;;27.47;25.27;;;;;;;;;;2071325;28;20788;-75
2021/07/11 01:33:50;;;;;;;27.97;25.47;;;;;;;22.40;100.00;57713.63;2063703;28;20535;-76
2021/07/11 01:34:52;;;;;;;27.73;25.50;;;;;;;22.40;100.00;124757.34;2063178;28;20468;-79
2021/07/11 01:35:54;;;;;;;28.33;25.67;;;;;;;;;;2071367;28;20827;-76
2021/07/11 01:36:57;;;;;;;27.93;25.33;;;;;;;22.40;100.00;57713.63;2071295;28;20830;-76
2021/07/11 01:37:59;;;;;;;28.17;25.77;;;;;;;;;;2063280;28;20440;-77
2021/07/11 01:39:00;;;;;;;27.43;25.13;;;;;;;;;;2063490;28;20452;-76
2021/07/11 01:40:09;;;;;;;28.43;25.97;;;;;;;;;;2066045;28;20467;-76
2021/07/11 01:41:12;;;;;;;28.70;25.90;;;;;;;17.34;nan;99138.59;2081206;28;20462;-75
2021/07/11 01:42:15;;;;;;;28.53;26.13;;;;;;;;;;2079254;28;20457;-75
2021/07/11 01:43:16;;;;;;;28.07;25.60;;;;;;;;;;2071622;28;20451;-76
2021/07/11 01:44:18;;;;;;;27.90;25.60;;;;;;;;;;2071359;28;20454;-75
2021/07/11 01:45:20;;;;;;;27.83;25.50;;;;;;;;;;2071434;28;20522;-76
2021/07/11 01:46:27;;;;;;;28.57;26.00;;;;;;;22.40;100.00;57713.63;2070966;28;20455;-75
2021/07/11 01:47:31;;;;;;;28.10;25.70;;;;;;;22.40;100.00;57713.63;2063586;28;20539;-75
2021/07/11 01:48:35;;;;;;;27.27;24.83;;;;;;;;;;2071412;28;20809;-75
2021/07/11 01:49:39;;;;;;;28.73;26.33;;;;;;;22.40;100.00;57835.25;2065168;28;20456;-76
2021/07/11 01:50:42;;;;;;;28.20;25.70;;;;;;;;;;2064907;28;21006;-76
2021/07/11 01:51:46;;;;;;;27.70;25.30;;;;;;;22.40;100.00;57737.91;2073466;28;20466;-76
2021/07/11 01:52:48;;;;;;;28.60;26.23;;;;;;;;;;2071339;28;20469;-76
2021/07/11 01:53:52;;;;;;;28.67;26.37;;;;;;;;;;2071347;28;20828;-76
2021/07/11 01:54:55;;;;;;;28.23;25.83;;;;;;;;;;2081021;28;20457;-76
2021/07/11 01:55:58;;;;;;;28.37;25.73;;;;;;;;;;2079199;28;20845;-76
2021/07/11 01:57:02;;;;;;;28.50;26.20;;;;;;;;;;2063341;28;20448;-77
2021/07/11 01:58:13;;;;;;;28.53;25.90;;;;;;;22.40;100.00;57713.63;2065320;28;20452;-75
2021/07/11 01:59:21;;;;;;;27.90;25.23;;;;;;;;;;2064155;28;20460;-75
2021/07/11 02:00:42;;;;;;;27.73;25.27;;;;;;;;;;2065893;28;20513;-76
2021/07/11 02:01:43;;;;;;;29.00;26.27;;;;;;;22.40;100.00;57741.97;2064232;28;20507;-76
2021/07/11 02:02:49;;;;;;;29.20;26.47;;;;;;;;;;2063837;28;20456;-75
2021/07/11 02:03:57;;;;;;;29.07;26.17;;;;;;;;;;2072002;28;20512;-76
2021/07/11 02:04:59;;;;;;;29.33;26.87;;;;;;;22.40;100.00;57713.63;2071219;28;20965;-76
2021/07/11 02:06:02;;;;;;;28.73;26.13;;;;;;;;;;2071685;28;20227;-76
2021/07/11 02:07:07;;;;;;;28.03;25.47;;;;;;;22.40;100.00;164490.97;2071319;28;20451;-76
2021/07/11 02:08:08;;;;;;;28.10;25.50;;;;;;;22.40;100.00;57774.44;2062602;28;20460;-77
2021/07/11 02:09:10;;;;;;;27.50;25.23;;;;;;;;;;2063077;28;20515;-75
2021/07/11 02:10:14;;;;;;;29.27;26.70;;;;;;;22.40;100.00;57713.63;2071245;28;20450;-76
2021/07/11 02:11:19;;;;;;;29.07;26.13;;;;;;;;;;2071343;28;20518;-76
2021/07/11 02:12:36;;;;;;;30.37;27.60;;;;;;;22.40;100.00;57772.41;2071779;28;20455;-75
2021/07/11 02:13:43;;;;;;;29.93;27.23;;;;;;;22.40;100.00;57713.63;2072745;28;20996;-76
2021/07/11 02:14:47;;;;;;;37.60;27.20;;;;;;;22.40;100.00;57713.63;2071889;28;20969;-76
2021/07/11 02:15:50;;;;;;;29.33;26.83;;;;;;;;;;2071230;28;20521;-76
2021/07/11 02:16:55;;;;;;;30.07;27.40;;;;;;;;;;2063350;28;20489;-76
2021/07/11 02:18:06;;;;;;;29.17;26.47;;;;;;;;;;2066566;28;20510;-76
2021/07/11 02:19:16;;;;;;;29.30;26.70;;;;;;;;;;2071072;28;20462;-76
2021/07/11 02:20:18;;;;;;;29.67;26.53;;;;;;;22.40;100.00;57713.63;2071129;28;20447;-76
2021/07/11 02:21:23;;;;;;;29.93;26.90;;;;;;;;;;2071009;28;21009;-78
2021/07/11 02:22:24;;;;;;;28.80;26.40;;;;;;;16.84;nan;99157.78;2071869;28;20517;-76
2021/07/11 02:23:33;;;;;;;29.17;26.67;;;;;;;22.40;100.00;57835.25;2071207;28;20449;-76
2021/07/11 02:24:38;;;;;;;30.20;27.57;;;;;;;;;;2065451;28;20503;-77
2021/07/11 02:25:41;;;;;;;28.53;26.13;;;;;;;;;;2072517;28;20487;-76
2021/07/11 02:26:42;;;;;;;29.77;26.80;;;;;;;;;;2063016;28;20456;-76
2021/07/11 02:27:46;;;;;;;27.60;25.20;;;;;;;;;;2079423;28;20442;-76
2021/07/11 02:28:48;;;;;;;29.17;26.77;;;;;;;;;;2079184;28;20462;-76
2021/07/11 02:29:54;;;;;;;27.57;24.97;;;;;;;;;;2071442;28;20452;-76
2021/07/11 02:30:59;;;;;;;28.10;25.70;;;;;;;22.40;100.00;57774.44;2063125;28;20543;-76
2021/07/11 02:32:03;;;;;;;27.73;25.30;;;;;;;;;;2063580;28;20511;-76
2021/07/11 02:33:10;;;;;;;28.47;25.97;;;;;;;;;;2073221;28;20463;-77
2021/07/11 02:34:14;;;;;;;28.40;26.00;;;;;;;;;;2078955;28;20978;-75
2021/07/11 02:35:15;;;;;;;27.67;25.20;;;;;;;;;;2073079;28;20504;-76
2021/07/11 02:36:20;;;;;;;28.53;25.80;;;;;;;;;;2089065;28;20488;-76
2021/07/11 02:37:23;;;;;;;28.95;26.42;;;;;;;22.40;100.00;57774.44;2088632;28;20565;-76
2021/07/11 02:38:25;;;;;;;29.00;26.40;;;;;;;;;;2088843;28;20238;-76
2021/07/11 02:39:26;;;;;;;29.07;26.47;;;;;;;22.40;100.00;57713.63;2088957;28;20588;-75
2021/07/11 02:40:36;;;;;;;29.03;26.70;;;;;;;22.40;100.00;57713.63;2090043;28;20454;-76
2021/07/11 02:41:37;;;;;;;29.37;26.47;;;;;;;;;;2088300;28;20822;-78
2021/07/11 02:42:40;;;;;;;30.13;27.73;;;;;;;22.40;100.00;164485.69;2089038;28;20924;-76
2021/07/11 02:43:43;;;;;;;29.83;27.23;;;;;;;;;;2088840;28;20464;-76
2021/07/11 02:44:48;;;;;;;29.57;26.93;;;;;;;;;;2080626;28;20509;-76
2021/07/11 02:45:52;;;;;;;28.73;26.20;;;;;;;22.40;100.00;57713.63;2072482;28;20465;-77
2021/07/11 02:46:57;;;;;;;30.13;27.50;;;;;;;;;;2072763;28;20450;-77
2021/07/11 02:47:58;;;;;;;30.27;27.27;;;;;;;;;;2073173;28;20232;-76
2021/07/11 02:49:01;;;;;;;29.53;27.03;;;;;;;;;;2072770;28;21048;-76
2021/07/11 02:50:11;;;;;;;29.47;26.90;;;;;;;;;;2080505;28;20481;-77
2021/07/11 02:51:19;;;;;;;30.37;27.33;;;;;;;;;;2097019;28;20456;-77
2021/07/11 02:52:23;;;;;;;29.67;27.03;;;;;;;22.40;100.00;57741.97;2087884;28;20533;-76
2021/07/11 02:53:28;;;;;;;29.33;26.90;;;;;;;22.40;100.00;57772.41;2080717;28;20492;-76
2021/07/11 02:54:35;;;;;;;29.20;26.40;;;;;;;;;;2080666;28;20451;-76
2021/07/11 02:55:38;;;;;;;29.17;26.63;;;;;;;;;;2089353;28;20453;-77
2021/07/11 02:56:39;;;;;;;30.30;27.37;;;;;;;;;;2096293;28;20542;-76
2021/07/11 02:57:47;;;;;;;29.97;27.37;;;;;;;;;;2097022;28;20461;-75
2021/07/11 02:58:51;;;;;;;28.40;26.10;;;;;;;;;;2088444;28;20476;-76
2021/07/11 02:59:53;;;;;;;29.10;26.47;;;;;;;;;;2080457;28;20911;-77
2021/07/11 03:00:54;;;;;;;29.07;26.47;;;;;;;22.40;100.00;57713.63;2097029;28;20966;-77
2021/07/11 03:02:00;;;;;;;29.50;26.83;;;;;;;;;;2088790;28;20935;-76
2021/07/11 03:03:01;;;;;;;30.33;27.63;;;;;;;;;;2089165;28;21020;-76
2021/07/11 03:04:13;;;;;;;30.10;27.60;;;;;;;;;;2087047;28;20449;-76
2021/07/11 03:05:21;;;;;;;29.47;26.70;;;;;;;22.40;100.00;57741.97;2089036;28;20521;-76
2021/07/11 03:06:23;;;;;;;29.53;26.93;;;;;;;;;;2085349;28;20872;-77
2021/07/11 03:07:24;;;;;;;29.37;26.87;;;;;;;22.40;100.00;57835.25;2080448;28;20484;-76
2021/07/11 03:08:27;;;;;;;28.77;26.37;;;;;;;;;;2072385;28;20542;-76
2021/07/11 03:09:31;;;;;;;29.90;26.97;;;;;;;;;;2088943;28;21022;-75
2021/07/11 03:10:33;;;;;;;29.10;26.60;;;;;;;;;;2088650;28;20892;-77
2021/07/11 03:11:39;;;;;;;28.37;25.87;;;;;;;;;;2079834;28;20265;-76
2021/07/11 03:12:42;;;;;;;28.83;26.43;;;;;;;;;;2080331;28;20960;-75
2021/07/11 03:13:45;;;;;;;28.60;26.17;;;;;;;22.40;100.00;57713.63;2072313;28;20448;-76
2021/07/11 03:14:50;;;;;;;29.17;26.57;;;;;;;;;;2072726;28;20474;-76
2021/07/11 03:15:53;;;;;;;28.77;26.17;;;;;;;;;;2080007;28;20869;-77
2021/07/11 03:16:59;;;;;;;28.63;25.93;;;;;;;;;;2080461;28;20550;-77
2021/07/11 03:18:02;;;;;;;27.77;25.37;;;;;;;;;;2089054;28;21402;-76
2021/07/11 03:19:04;;;;;;;29.63;27.13;;;;;;;;;;2088616;28;20469;-77
2021/07/11 03:20:08;;;;;;;29.70;27.07;;;;;;;;;;2088652;28;20533;-76
2021/07/11 03:21:14;;;;;;;30.00;27.43;;;;;;;;;;2095810;28;20523;-75
2021/07/11 03:22:21;;;;;;;30.20;27.23;;;;;;;;;;2096964;28;20837;-76
2021/07/11 03:23:23;;;;;;;30.77;28.17;;;;;;;;;;2081722;28;20485;-77
2021/07/11 03:24:24;;;;;;;30.00;27.33;;;;;;;;;;2072370;28;20898;-76
2021/07/11 03:25:26;;;;;;;29.20;26.60;;;;;;;;;;2088225;28;20461;-75
2021/07/11 03:26:28;;;;;;;30.57;27.87;;;;;;;;;;2080183;28;20458;-76
2021/07/11 03:27:30;;;;;;;30.07;27.47;;;;;;;22.40;100.00;57713.63;2072342;28;20447;-75
2021/07/11 03:28:31;;;;;;;29.37;26.80;;;;;;;;;;2072223;28;20451;-76
2021/07/11 03:29:35;;;;;;;29.17;26.67;;;;;;;;;;2072450;28;20471;-77
2021/07/11 03:30:42;;;;;;;29.40;26.90;;;;;;;22.40;100.00;57713.63;2088483;28;20223;-76
2021/07/11 03:31:45;;;;;;;28.97;26.67;;;;;;;;;;2094100;28;20436;-76
2021/07/11 03:32:48;;;;;;;29.53;26.90;;;;;;;;;;2096771;28;20448;-76
2021/07/11 03:33:53;;;;;;;29.83;27.33;;;;;;;;;;2096062;28;20506;-75
2021/07/11 03:34:53;;;;;;;29.87;27.27;;;;;;;;;;2073924;28;20501;-76
2021/07/11 03:36:02;;;;;;;30.10;27.43;;;;;;;;;;2064679;28;20456;-76
2021/07/11 03:37:08;;;;;;;29.40;26.73;;;;;;;;;;2064667;28;20526;-77
2021/07/11 03:38:10;;;;;;;29.77;27.27;;;;;;;;;;2070153;28;20542;-76
2021/07/11 03:39:12;;;;;;;30.07;27.20;;;;;;;;;;2080432;28;20453;-77
2021/07/11 03:40:16;;;;;;;30.40;27.90;;;;;;;;;;2096988;28;21011;-76
2021/07/11 03:41:20;;;;;;;30.30;27.50;;;;;;;22.40;100.00;57713.63;2088126;28;20453;-77
2021/07/11 03:42:22;;;;;;;27.97;25.57;;;;;;;22.40;100.00;57713.63;2080730;28;21008;-76
2021/07/11 03:43:26;;;;;;;29.67;26.97;;;;;;;;;;2079870;28;20465;-77
2021/07/11 03:44:30;;;;;;;29.87;27.17;;;;;;;;;;2072273;28;20470;-76
2021/07/11 03:45:33;;;;;;;29.20;26.53;;;;;;;22.40;100.00;124673.94;2080703;28;20450;-76
2021/07/11 03:46:37;;;;;;;29.73;26.93;;;;;;;22.40;100.00;57741.97;2096682;28;20472;-75
2021/07/11 03:47:41;;;;;;;28.97;26.53;;;;;;;;;;2087601;28;20469;-76
2021/07/11 03:48:43;;;;;;;30.20;26.93;;;;;;;;;;2072537;28;20990;-77
2021/07/11 03:49:47;;;;;;;29.70;27.10;;;;;;;22.40;100.00;57713.63;2088646;28;20540;-76
2021/07/11 03:50:51;;;;;;;31.33;28.47;;;;;;;;;;2088219;28;20462;-76
2021/07/11 03:51:52;;;;;;;29.87;27.33;;;;;;;;;;2079933;28;20446;-78
2021/07/11 03:52:56;;;;;;;29.90;27.33;;;;;;;;;;2081125;28;20474;-76
2021/07/11 03:53:58;;;;;;;29.27;26.53;;;;;;;;;;2080978;28;20802;-77
2021/07/11 03:55:00;;;;;;;29.50;27.00;;;;;;;;;;2080863;28;20493;-76
2021/07/11 03:56:01;;;;;;;30.67;27.90;;;;;;;;;;2096852;28;20804;-76
2021/07/11 03:57:03;;;;;;;30.83;28.03;;;;;;;;;;2096770;28;20448;-76
2021/07/11 03:58:06;;;;;;;29.90;27.37;;;;;;;;;;2081129;28;20451;-76
2021/07/11 03:59:09;;;;;;;29.57;27.00;;;;;;;;;;2079727;28;20461;-78
2021/07/11 04:00:10;;;;;;;31.07;28.10;;;;;;;;;;2072092;28;20545;-75
2021/07/11 04:01:21;;;;;;;31.77;28.90;;;;;;;;;;2080203;28;20458;-76
2021/07/11 04:02:25;;;;;;;31.00;28.40;;;;;;;;;;2096167;28;20461;-77
2021/07/11 04:03:27;;;;;;;31.10;28.30;;;;;;;;;;2095958;28;20448;-76
2021/07/11 04:04:28;;;;;;;30.67;27.90;;;;;;;;;;2080752;28;20458;-76
2021/07/11 04:05:30;;;;;;;31.83;28.90;;;;;;;;;;2080945;28;20439;-75
2021/07/11 04:06:31;;;;;;;31.60;28.60;;;;;;;;;;2080992;28;20465;-76
2021/07/11 04:07:35;;;;;;;32.03;29.03;;;;;;;22.40;100.00;57835.25;2080781;28;20937;-76
2021/07/11 04:08:35;;;;;;;31.50;28.53;;;;;;;22.40;100.00;57713.63;2096521;28;20233;-77
2021/07/11 04:09:37;;;;;;;32.93;29.80;;;;;;;;;;2096682;28;20480;-76
2021/07/11 04:10:38;;;;;;;31.53;28.57;;;;;;;;;;2079768;28;20227;-76
2021/07/11 04:11:40;;;;;;;32.20;29.30;;;;;;;;;;2072071;28;20491;-76
2021/07/11 04:12:40;;;;;;;31.80;28.77;;;;;;;;;;2080144;28;20461;-76
2021/07/11 04:13:42;;;;;;;31.10;28.10;;;;;;;;;;2096710;28;20486;-77
2021/07/11 04:14:43;;;;;;;31.93;29.00;;;;;;;22.40;100.00;57713.63;2088427;28;20226;-76
2021/07/11 04:15:48;;;;;;;30.73;28.13;;;;;;;;;;2080340;28;20481;-76
2021/07/11 04:16:50;;;;;;;31.70;28.80;;;;;;;;;;2080468;28;20454;-76
2021/07/11 04:17:55;;;;;;;32.13;29.23;;;;;;;;;;2080198;28;21019;-76
2021/07/11 04:18:57;;;;;;;30.33;27.60;;;;;;;;;;2080446;28;20814;-77
2021/07/11 04:20:01;;;;;;;31.30;28.57;;;;;;;22.40;100.00;57713.63;2081096;28;20443;-76
2021/07/11 04:21:02;;;;;;;31.27;28.57;;;;;;;;;;2096466;28;20448;-75
2021/07/11 04:22:04;;;;;;;33.00;30.10;;;;;;;;;;2096618;28;20974;-76
2021/07/11 04:23:05;;;;;;;32.77;29.80;;;;;;;;;;2079991;28;20224;-75
2021/07/11 04:24:07;;;;;;;32.97;29.77;;;;;;;;;;2071708;28;20510;-76
2021/07/11 04:25:09;;;;;;;33.47;30.67;;;;;;;;;;2079769;28;20474;-75
2021/07/11 04:26:11;;;;;;;32.47;29.57;;;;;;;;;;2080107;28;20537;-76
2021/07/11 04:27:12;;;;;;;32.27;29.47;;;;;;;;;;2080138;28;20887;-76
2021/07/11 04:28:14;;;;;;;33.23;30.13;;;;;;;;;;2080760;28;20450;-77
2021/07/11 04:29:15;;;;;;;33.33;30.30;;;;;;;22.40;100.00;57713.63;2096265;28;20607;-75
2021/07/11 04:30:18;;;;;;;33.10;30.00;;;;;;;22.40;100.00;57713.63;2096521;28;20503;-76
2021/07/11 04:31:19;;;;;;;32.07;29.23;;;;;;;;;;2080520;28;20489;-76
2021/07/11 04:32:21;;;;;;;32.87;29.47;;;;;;;22.40;100.00;57713.63;2096375;28;20444;-75
2021/07/11 04:33:23;;;;;;;32.67;29.33;;;;;;;;;;2088187;28;20450;-75
2021/07/11 04:34:26;;;;;;;31.23;28.23;;;;;;;22.40;100.00;57713.63;2071523;28;20485;-77
2021/07/11 04:35:28;;;;;;;31.40;28.63;;;;;;;;;;2079951;28;20450;-76
2021/07/11 04:36:29;;;;;;;31.63;28.73;;;;;;;;;;2096181;28;20480;-76
2021/07/11 04:37:30;;;;;;;31.27;28.33;;;;;;;22.40;100.00;57713.63;2096193;28;20452;-76
2021/07/11 04:38:31;;;;;;;31.10;28.30;;;;;;;;;;2096153;28;20484;-76
2021/07/11 04:39:32;;;;;;;31.17;28.50;;;;;;;;;;2096409;28;20636;-76
2021/07/11 04:40:34;;;;;;;31.53;28.57;;;;;;;;;;2080104;28;20442;-77
2021/07/11 04:41:38;;;;;;;31.63;28.73;;;;;;;17.57;nan;99103.81;2079779;28;20458;-75
2021/07/11 04:42:39;;;;;;;32.03;29.13;;;;;;;;;;2080360;28;20466;-76
2021/07/11 04:43:40;;;;;;;31.47;28.60;;;;;;;;;;2080737;28;20542;-75
2021/07/11 04:44:44;;;;;;;30.27;27.47;;;;;;;;;;2096087;28;20452;-77
2021/07/11 04:45:45;;;;;;;31.13;28.23;;;;;;;;;;2087546;28;20243;-76
2021/07/11 04:46:46;;;;;;;30.13;27.40;;;;;;;22.40;100.00;164485.69;2079834;28;20481;-76
2021/07/11 04:47:47;;;;;;;29.97;27.47;;;;;;;22.40;100.00;57713.63;2071828;28;20521;-75
2021/07/11 04:48:50;;;;;;;30.30;27.40;;;;;;;;;;2079831;28;20485;-76
2021/07/11 04:49:50;;;;;;;31.50;28.20;;;;;;;;;;2080582;28;20223;-75
2021/07/11 04:50:52;;;;;;;29.47;26.93;;;;;;;22.40;100.00;57713.63;2096299;28;20540;-76
2021/07/11 04:51:53;;;;;;;31.47;28.40;;;;;;;;;;2089244;28;20289;-76
2021/07/11 04:52:55;;;;;;;29.90;27.37;;;;;;;;;;2072273;28;20447;-77
2021/07/11 04:53:55;;;;;;;31.20;28.50;;;;;;;;;;2071693;28;20459;-76
2021/07/11 04:54:57;;;;;;;30.73;27.97;;;;;;;;;;2071724;28;21375;-76
2021/07/11 04:55:57;;;;;;;30.83;28.23;;;;;;;;;;2072258;28;20238;-76
2021/07/11 04:56:59;;;;;;;30.00;27.23;;;;;;;;;;2071336;28;20471;-76
2021/07/11 04:57:59;;;;;;;30.90;28.13;;;;;;;;;;2071489;28;20718;-75
2021/07/11 04:59:01;;;;;;;29.27;26.80;;;;;;;;;;2071848;28;20816;-76
2021/07/11 05:00:03;;;;;;;30.33;27.50;;;;;;;;;;2071657;28;20294;-76
2021/07/11 05:01:04;;;;;;;30.67;28.07;;;;;;;22.40;100.00;164132.13;2071746;28;20452;-75
2021/07/11 05:02:05;;;;;;;30.13;27.53;;;;;;;;;;2071468;28;20466;-76
2021/07/11 05:03:06;;;;;;;29.67;27.07;;;;;;;;;;2071813;28;20613;-76
2021/07/11 05:04:08;;;;;;;29.00;26.60;;;;;;;;;;2077268;28;20227;-78
2021/07/11 05:05:10;;;;;;;29.00;26.50;;;;;;;;;;2071500;28;20505;-76
2021/07/11 05:06:10;;;;;;;29.00;26.60;;;;;;;;;;2071717;28;20467;-76
2021/07/11 05:07:12;;;;;;;28.53;26.07;;;;;;;;;;2079909;28;20525;-76
2021/07/11 05:08:12;;;;;;;29.53;26.73;;;;;;;;;;2079680;28;20223;-77
2021/07/11 05:09:14;;;;;;;28.77;26.37;;;;;;;;;;2087879;28;20488;-77
2021/07/11 05:10:14;;;;;;;28.60;25.93;;;;;;;;;;2096171;28;20645;-76
2021/07/11 05:11:17;;;;;;;28.57;26.10;;;;;;;;;;2079782;28;20504;-76
2021/07/11 05:12:17;;;;;;;27.83;25.63;;;;;;;;;;2088078;28;20215;-76
2021/07/11 05:13:19;;;;;;;27.73;25.43;;;;;;;;;;2087881;28;20593;-75
2021/07/11 05:14:19;;;;;;;27.87;25.57;;;;;;;;;;2079748;28;20662;-75
2021/07/11 05:15:21;;;;;;;28.83;26.20;;;;;;;;;;2079818;28;20879;-76
2021/07/11 05:16:22;;;;;;;28.73;26.33;;;;;;;;;;2079220;28;20652;-77
2021/07/11 05:17:23;;;;;;;28.87;26.23;;;;;;;;;;2071573;28;20462;-76
2021/07/11 05:18:24;;;;;;;27.97;25.57;;;;;;;;;;2079635;28;20302;-76
2021/07/11 05:19:26;;;;;;;28.53;25.80;;;;;;;;;;2096131;28;20467;-77
2021/07/11 05:20:27;;;;;;;28.80;25.70;;;;;;;;;;2095806;28;20617;-76
2021/07/11 05:21:29;;;;;;;28.10;25.60;;;;;;;;;;2080362;28;20512;-75
2021/07/11 05:22:30;;;;;;;30.10;27.10;;;;;;;;;;2080451;28;20226;-76
2021/07/11 05:23:31;;;;;;;29.40;26.57;;;;;;;;;;2096070;28;20448;-76
2021/07/11 05:24:32;;;;;;;27.90;25.50;;;;;;;;;;2096221;28;20229;-77
2021/07/11 05:25:33;;;;;;;26.77;24.67;;;;;;;;;;2080002;28;20481;-76
2021/07/11 05:26:34;;;;;;;26.83;24.67;;;;;;;;;;2071537;28;20220;-76
2021/07/11 05:27:36;;;;;;;26.33;24.23;;;;;;;;;;2079648;28;20489;-76
2021/07/11 05:28:36;;;;;;;26.93;24.83;;;;;;;;;;2070992;28;20262;-79
2021/07/11 05:29:38;;;;;;;27.93;25.67;;;;;;;;;;2063471;28;20452;-76
2021/07/11 05:30:39;;;;;;;28.67;26.10;;;;;;;;;;2064116;28;20605;-76
2021/07/11 05:31:40;;;;;;;27.97;25.50;;;;;;;;;;2064023;28;20540;-76
2021/07/11 05:32:41;;;;;;;27.23;24.83;;;;;;;;;;2063947;28;20221;-76
2021/07/11 05:33:42;;;;;;;26.57;24.50;;;;;;;;;;2064111;28;20526;-76
2021/07/11 05:34:44;;;;;;;27.07;24.63;;;;;;;;;;2079289;28;20219;-75
2021/07/11 05:35:46;;;;;;;27.20;24.90;;;;;;;;;;2071684;28;21014;-76
2021/07/11 05:36:46;;;;;;;27.27;24.97;;;;;;;;;;2063337;28;20459;-76
2021/07/11 05:37:48;;;;;;;26.67;24.57;;;;;;;;;;2071657;28;20927;-76
2021/07/11 05:38:48;;;;;;;26.80;24.50;;;;;;;;;;2079504;28;20245;-76
2021/07/11 05:39:50;;;;;;;26.37;24.27;;;;;;;;;;2079576;28;21000;-77
2021/07/11 05:40:51;;;;;;;26.60;24.40;;;;;;;;;;2071317;28;20577;-76